createdAt,value
2023-05-06T00:03:55.967Z,22.6
2023-05-06T00:09:32.493Z,22.6
2023-05-06T00:15:09.646Z,22.6
2023-05-06T00:21:02.132Z,22.6
2023-05-06T00:26:38.596Z,22.6
2023-05-06T00:32:31.179Z,22.6
2023-05-06T00:38:23.635Z,22.6
2023-05-06T00:44:15.056Z,22.6
2023-05-06T00:50:08.437Z,22.6
2023-05-06T00:56:01.036Z,22.6
2023-05-06T01:01:56.277Z,22.6
2023-05-06T01:08:05.423Z,22.6
2023-05-06T01:14:00.024Z,22.6
2023-05-06T01:19:50.804Z,22.6
2023-05-06T01:25:43.306Z,22.6
2023-05-06T01:31:35.675Z,22.6
2023-05-06T01:37:27.312Z,22.6
2023-05-06T01:43:04.814Z,22.6
2023-05-06T01:48:42.089Z,22.6
2023-05-06T01:54:18.587Z,22.6
2023-05-06T01:59:56.244Z,22.6
2023-05-06T02:05:34.484Z,22.6
2023-05-06T02:11:10.795Z,22.6
2023-05-06T02:16:48.276Z,22.6
2023-05-06T02:22:25.068Z,22.6
2023-05-06T02:28:01.013Z,22.6
2023-05-06T02:33:37.941Z,22.5
2023-05-06T02:39:29.466Z,22.5
2023-05-06T02:45:21.212Z,22.5
2023-05-06T02:50:57.656Z,22.5
2023-05-06T02:56:49.610Z,22.5
2023-05-06T03:02:25.999Z,22.4
2023-05-06T03:08:03.567Z,22.4
2023-05-06T03:13:40.855Z,22.4
2023-05-06T03:19:17.313Z,22.4
2023-05-06T03:24:53.865Z,22.4
2023-05-06T03:30:30.866Z,22.3
2023-05-06T03:36:22.056Z,22.3
2023-05-06T03:41:59.083Z,22.3
2023-05-06T03:47:51.730Z,22.3
2023-05-06T03:53:28.364Z,22.3
2023-05-06T03:59:20.506Z,22.3
2023-05-06T04:05:12.986Z,22.3
2023-05-06T04:11:04.859Z,22.2
2023-05-06T04:16:57.916Z,22.2
2023-05-06T04:22:35.244Z,22.2
2023-05-06T04:28:26.487Z,22.2
2023-05-06T04:34:19.249Z,22.2
2023-05-06T04:40:11.365Z,22.1
2023-05-06T04:46:03.225Z,22.1
2023-05-06T04:51:57.904Z,22.1
2023-05-06T04:57:53.001Z,22.1
2023-05-06T05:03:45.419Z,22.1
2023-05-06T05:09:22.373Z,22.1
2023-05-06T05:15:16.638Z,22.1
2023-05-06T05:21:08.000Z,22.1
2023-05-06T05:27:01.582Z,22.1
2023-05-06T05:32:54.181Z,22.1
2023-05-06T05:38:46.338Z,22.1
2023-05-06T05:44:40.469Z,22.1
2023-05-06T05:50:32.965Z,22.1
2023-05-06T05:56:24.141Z,22.1
2023-05-06T06:02:16.291Z,22.1
2023-05-06T06:08:09.059Z,22.1
2023-05-06T06:13:45.743Z,22.1
2023-05-06T06:19:38.574Z,22
2023-05-06T06:25:31.528Z,22
2023-05-06T06:31:22.846Z,22
2023-05-06T06:37:17.355Z,22
2023-05-06T06:43:09.814Z,22
2023-05-06T06:49:03.176Z,21.9
2023-05-06T06:54:42.859Z,28.3
2023-05-06T07:00:35.401Z,28.6
2023-05-06T07:06:12.055Z,27.8
2023-05-06T07:12:07.770Z,27
2023-05-06T07:18:01.548Z,26.3
2023-05-06T07:23:54.958Z,25.8
2023-05-06T07:29:49.855Z,25.4
2023-05-06T07:35:45.253Z,25
2023-05-06T07:41:37.489Z,24.8
2023-05-06T07:47:31.724Z,28.3
2023-05-06T07:53:26.582Z,30.1
2023-05-06T07:59:19.697Z,31
2023-05-06T08:05:14.550Z,31.7
2023-05-06T08:11:19.305Z,32.5
2023-05-06T08:17:15.152Z,34.1
2023-05-06T08:23:26.493Z,35.1
2023-05-06T08:29:21.135Z,35.8
2023-05-06T08:35:17.007Z,36.3
2023-05-06T08:41:11.018Z,37.1
2023-05-06T08:47:08.002Z,38.4
2023-05-06T08:53:03.949Z,38.8
2023-05-06T08:58:58.043Z,38.3
2023-05-06T09:04:56.150Z,38.2
2023-05-06T09:10:50.223Z,40
2023-05-06T09:16:44.576Z,41.4
2023-05-06T09:22:23.850Z,42.4
2023-05-06T09:28:19.668Z,43.3
2023-05-06T09:34:01.865Z,43.4
2023-05-06T09:39:41.365Z,43.2
2023-05-06T09:45:19.060Z,44
2023-05-06T09:50:59.412Z,44.1
2023-05-06T09:56:37.975Z,44.3
2023-05-06T10:02:26.056Z,44.3
2023-05-06T10:08:08.661Z,43.9
2023-05-06T10:13:49.924Z,43.4
2023-05-06T10:19:28.956Z,43.3
2023-05-06T10:24:51.581Z,42.8
2023-05-06T10:30:29.504Z,42.3
2023-05-06T10:36:09.616Z,41.8
2023-05-06T10:41:48.368Z,41.4
2023-05-06T10:47:27.497Z,41.1
2023-05-06T10:52:49.618Z,41.2
2023-05-06T10:58:28.951Z,42.4
2023-05-06T11:04:12.832Z,42.2
2023-05-06T11:09:52.977Z,42.1
2023-05-06T11:15:32.474Z,42
2023-05-06T11:21:12.797Z,42.3
2023-05-06T11:26:51.228Z,41.6
2023-05-06T11:32:15.549Z,41.1
2023-05-06T11:37:55.753Z,36.9
2023-05-06T11:43:24.019Z,36.1
2023-05-06T11:49:02.185Z,36.1
2023-05-06T11:54:43.142Z,36.4
2023-05-06T12:00:04.786Z,37.1
2023-05-06T12:05:45.388Z,38.6
2023-05-06T12:11:20.590Z,39
2023-05-06T12:16:59.018Z,39.5
2023-05-06T12:22:22.726Z,39.8
2023-05-06T12:28:01.472Z,40.1
2023-05-06T12:33:25.143Z,39.6
2023-05-06T12:38:51.233Z,39.1
2023-05-06T12:44:32.191Z,39
2023-05-06T12:50:28.729Z,38.7
2023-05-06T12:56:22.232Z,38.7
2023-05-06T13:02:17.375Z,39.9
2023-05-06T13:08:12.480Z,40.1
2023-05-06T13:14:07.612Z,39.9
2023-05-06T13:20:11.463Z,40.1
2023-05-06T13:26:36.047Z,40.3
2023-05-06T13:32:30.874Z,40.7
2023-05-06T13:38:25.527Z,41.3
2023-05-06T13:44:04.895Z,40.6
2023-05-06T13:49:43.320Z,40.2
2023-05-06T13:55:23.284Z,40.2
2023-05-06T14:01:19.412Z,40.9
2023-05-06T14:07:17.122Z,40.6
2023-05-06T14:13:13.179Z,40.2
2023-05-06T14:19:09.892Z,39.8
2023-05-06T14:24:50.139Z,39.9
2023-05-06T14:30:45.772Z,39.7
2023-05-06T14:36:26.356Z,39.4
2023-05-06T14:42:06.920Z,39.1
2023-05-06T14:48:08.937Z,38.7
2023-05-06T14:54:04.298Z,38.3
2023-05-06T14:59:45.080Z,37.9
2023-05-06T15:05:10.188Z,37.9
2023-05-06T15:11:06.860Z,37.8
2023-05-06T15:16:49.185Z,37.6
2023-05-06T15:22:30.262Z,37.1
2023-05-06T15:28:41.171Z,36.7
2023-05-06T15:34:38.837Z,36.4
2023-05-06T15:40:23.435Z,36.1
2023-05-06T15:46:14.826Z,35.8
2023-05-06T15:52:34.553Z,35.5
2023-05-06T15:58:50.984Z,35.1
2023-05-06T16:04:58.582Z,34.8
2023-05-06T16:10:40.646Z,34.3
2023-05-06T16:16:22.194Z,34
2023-05-06T16:22:04.267Z,33.6
2023-05-06T16:27:48.857Z,32.3
2023-05-06T16:33:33.370Z,31.3
2023-05-06T16:39:15.345Z,30.6
2023-05-06T16:44:58.137Z,29.9
2023-05-06T16:50:44.098Z,29.4
2023-05-06T16:56:30.372Z,28.9
2023-05-06T17:02:19.015Z,28.5
2023-05-06T17:08:01.355Z,28.1
2023-05-06T17:13:45.419Z,27.9
2023-05-06T17:19:27.592Z,27.6
2023-05-06T17:25:26.432Z,27.4
2023-05-06T17:31:08.020Z,27.1
2023-05-06T17:36:49.692Z,26.9
2023-05-06T17:42:31.514Z,26.8
2023-05-06T17:48:16.370Z,26.6
2023-05-06T17:53:59.793Z,26.5
2023-05-06T17:59:44.285Z,26.4
2023-05-06T18:05:27.108Z,26.3
2023-05-06T18:11:09.141Z,26.1
2023-05-06T18:16:52.241Z,26
2023-05-06T18:22:35.080Z,25.9
2023-05-06T18:28:52.281Z,25.9
2023-05-06T18:34:53.018Z,25.7
2023-05-06T18:40:35.291Z,25.6
2023-05-06T18:46:18.821Z,25.6
2023-05-06T18:52:00.599Z,25.4
2023-05-06T18:57:42.804Z,25.4
2023-05-06T19:03:24.471Z,25.2
2023-05-06T19:09:06.461Z,25
2023-05-06T19:14:32.495Z,24.8
2023-05-06T19:20:14.104Z,24.5
2023-05-06T19:25:55.239Z,24.3
2023-05-06T19:31:37.106Z,24.1
2023-05-06T19:37:19.652Z,24
2023-05-06T19:43:02.229Z,23.9
2023-05-06T19:48:29.371Z,23.8
2023-05-06T19:54:11.133Z,23.7
2023-05-06T19:59:53.898Z,23.6
2023-05-06T20:05:36.829Z,23.4
2023-05-06T20:11:20.385Z,23.3
2023-05-06T20:17:03.456Z,23.1
2023-05-06T20:22:44.947Z,23
2023-05-06T20:28:26.306Z,22.9
2023-05-06T20:34:08.412Z,22.8
2023-05-06T20:39:50.118Z,22.8
2023-05-06T20:45:15.788Z,22.7
2023-05-06T20:50:59.641Z,22.6
2023-05-06T20:56:40.761Z,22.6
2023-05-06T21:02:22.568Z,22.5
2023-05-06T21:08:08.260Z,22.4
2023-05-06T21:13:50.521Z,22.4
2023-05-06T21:19:47.919Z,22.4
2023-05-06T21:25:47.529Z,22.4
2023-05-06T21:31:42.269Z,22.3
2023-05-06T21:37:38.132Z,22.3
2023-05-06T21:43:34.272Z,22.3
2023-05-06T21:49:29.976Z,22.3
2023-05-06T21:55:23.843Z,22.3
2023-05-06T22:01:19.439Z,22.2
2023-05-06T22:07:15.848Z,22.2
2023-05-06T22:13:10.550Z,22.2
2023-05-06T22:19:13.951Z,22.1
2023-05-06T22:25:10.676Z,22.1
2023-05-06T22:31:04.491Z,22.1
2023-05-06T22:37:00.391Z,22.1
2023-05-06T22:42:54.219Z,22.1
2023-05-06T22:48:48.432Z,22.1
2023-05-06T22:54:53.620Z,22.1
2023-05-06T23:00:32.078Z,22.1
2023-05-06T23:06:26.101Z,22.1
2023-05-06T23:12:03.615Z,22
2023-05-06T23:17:41.127Z,22
2023-05-06T23:23:33.277Z,22
2023-05-06T23:28:39.051Z,22
2023-05-06T23:34:00.306Z,22
2023-05-06T23:39:21.420Z,22
2023-05-06T23:44:42.486Z,21.9
2023-05-06T23:50:04.693Z,21.9
2023-05-06T23:55:25.985Z,21.9
